createdAt,value
2019-05-10T00:02:00.303Z,94388.92
2019-05-10T00:04:47.947Z,94397.59
2019-05-10T00:07:35.512Z,94382.16
2019-05-10T00:10:05.111Z,94391.36
2019-05-10T00:12:52.667Z,94393.21
2019-05-10T00:15:25.043Z,94403.17
2019-05-10T00:17:55.933Z,94401.20
2019-05-10T00:20:25.761Z,94402.23
2019-05-10T00:22:55.679Z,94408.16
2019-05-10T00:25:25.738Z,94402.70
2019-05-10T00:27:55.667Z,94409.71
2019-05-10T00:30:25.593Z,94418.66
2019-05-10T00:32:55.591Z,94416.84
2019-05-10T00:35:25.502Z,94410.84
2019-05-10T00:37:55.336Z,94407.58
2019-05-10T00:40:25.163Z,94416.88
2019-05-10T00:42:55.262Z,94420.56
2019-05-10T00:45:25.257Z,94426.48
2019-05-10T00:47:55.161Z,94422.06
2019-05-10T00:50:25.036Z,94425.80
2019-05-10T00:52:54.879Z,94424.73
2019-05-10T00:55:24.775Z,94436.59
2019-05-10T00:57:54.677Z,94431.48
2019-05-10T01:00:24.874Z,94431.53
2019-05-10T01:02:54.730Z,94426.14
2019-05-10T01:05:24.559Z,94438.31
2019-05-10T01:07:54.385Z,94440.16
2019-05-10T01:10:25.469Z,94456.63
2019-05-10T01:12:55.370Z,94446.67
2019-05-10T01:15:25.339Z,94442.37
2019-05-10T01:17:55.196Z,94435.53
2019-05-10T01:20:25.133Z,94440.66
2019-05-10T01:22:54.975Z,94437.58
2019-05-10T01:25:34.565Z,94441.16
2019-05-10T01:27:57.310Z,94446.94
2019-05-10T01:30:27.293Z,94436.88
2019-05-10T01:32:57.445Z,94429.73
2019-05-10T01:35:27.505Z,94432.09
2019-05-10T01:37:57.522Z,94439.72
2019-05-10T01:40:28.387Z,94438.20
2019-05-10T01:42:58.384Z,94445.00
2019-05-10T01:45:28.305Z,94452.13
2019-05-10T01:47:58.215Z,94452.45
2019-05-10T01:50:28.203Z,94447.09
2019-05-10T01:52:58.175Z,94455.98
2019-05-10T01:55:28.024Z,94460.83
2019-05-10T01:57:57.844Z,94458.58
2019-05-10T02:00:27.759Z,94458.90
2019-05-10T02:02:57.663Z,94469.73
2019-05-10T02:05:27.648Z,94466.81
2019-05-10T02:07:57.629Z,94465.32
2019-05-10T02:10:27.772Z,94479.44
2019-05-10T02:12:57.684Z,94477.75
2019-05-10T02:15:27.663Z,94479.51
2019-05-10T02:17:57.506Z,94473.66
2019-05-10T02:20:27.343Z,94471.31
2019-05-10T02:22:57.344Z,94483.96
2019-05-10T02:25:27.459Z,94485.14
2019-05-10T02:27:57.249Z,94485.88
2019-05-10T02:30:28.048Z,94486.53
2019-05-10T02:32:57.998Z,94490.20
2019-05-10T02:35:27.875Z,94491.16
2019-05-10T02:37:57.765Z,94497.08
2019-05-10T02:40:27.756Z,94496.58
2019-05-10T02:42:57.978Z,94500.13
2019-05-10T02:45:27.969Z,94499.84
2019-05-10T02:47:57.886Z,94501.14
2019-05-10T02:50:27.787Z,94500.93
2019-05-10T02:52:57.789Z,94504.33
2019-05-10T02:55:28.172Z,94503.06
2019-05-10T02:57:58.951Z,94504.49
2019-05-10T03:00:29.509Z,94506.06
2019-05-10T03:02:59.689Z,94502.35
2019-05-10T03:05:31.528Z,94503.98
2019-05-10T03:08:03.918Z,94498.14
2019-05-10T03:10:34.718Z,94489.31
2019-05-10T03:13:05.123Z,94496.14
2019-05-10T03:15:37.571Z,94483.45
2019-05-10T03:18:07.559Z,94496.01
2019-05-10T03:20:39.262Z,94503.20
2019-05-10T03:23:10.915Z,94493.16
2019-05-10T03:25:40.906Z,94495.01
2019-05-10T03:28:10.783Z,94493.99
2019-05-10T03:30:40.711Z,94489.38
2019-05-10T03:33:10.801Z,94501.12
2019-05-10T03:35:43.573Z,94493.19
2019-05-10T03:38:13.726Z,94494.61
2019-05-10T03:40:43.704Z,94490.52
2019-05-10T03:43:13.535Z,94488.09
2019-05-10T03:45:43.504Z,94477.14
2019-05-10T03:48:13.431Z,94484.79
2019-05-10T03:50:43.325Z,94488.22
2019-05-10T03:53:13.138Z,94495.84
2019-05-10T03:55:43.040Z,94506.03
2019-05-10T03:58:12.867Z,94506.11
2019-05-10T04:00:42.825Z,94507.15
2019-05-10T04:03:12.719Z,94515.83
2019-05-10T04:05:42.685Z,94518.14
2019-05-10T04:08:12.590Z,94528.40
2019-05-10T04:10:42.602Z,94523.84
2019-05-10T04:13:12.505Z,94519.38
2019-05-10T04:15:42.461Z,94528.94
2019-05-10T04:18:12.275Z,94525.22
2019-05-10T04:20:42.115Z,94531.34
2019-05-10T04:23:12.008Z,94524.25
2019-05-10T04:25:41.973Z,94519.36
2019-05-10T04:28:11.870Z,94528.63
2019-05-10T04:30:41.752Z,94531.85
2019-05-10T04:33:11.577Z,94538.19
2019-05-10T04:35:41.479Z,94535.72
2019-05-10T04:38:11.346Z,94534.20
2019-05-10T04:40:41.170Z,94537.28
2019-05-10T04:43:11.168Z,94538.35
2019-05-10T04:45:41.071Z,94538.61
2019-05-10T04:48:10.966Z,94543.96
2019-05-10T04:50:40.840Z,94540.75
2019-05-10T04:53:10.657Z,94541.93
2019-05-10T04:55:40.539Z,94545.70
2019-05-10T04:58:10.397Z,94549.66
2019-05-10T05:00:40.305Z,94547.07
2019-05-10T05:03:10.270Z,94556.40
2019-05-10T05:05:42.425Z,94556.17
2019-05-10T05:08:12.336Z,94553.90
2019-05-10T05:10:42.159Z,94558.66
2019-05-10T05:13:12.135Z,94560.11
2019-05-10T05:15:41.982Z,94557.13
2019-05-10T05:18:11.886Z,94562.17
2019-05-10T05:20:41.868Z,94563.77
2019-05-10T05:23:11.765Z,94563.12
2019-05-10T05:25:41.895Z,94557.75
2019-05-10T05:28:11.986Z,94559.20
2019-05-10T05:30:41.812Z,94568.23
2019-05-10T05:33:11.653Z,94567.92
2019-05-10T05:35:41.530Z,94570.40
2019-05-10T05:38:11.415Z,94573.66
2019-05-10T05:40:41.255Z,94581.23
2019-05-10T05:43:11.211Z,94582.00
2019-05-10T05:45:41.095Z,94591.58
2019-05-10T05:48:10.934Z,94588.75
2019-05-10T05:50:40.827Z,94593.61
2019-05-10T05:53:10.733Z,94591.77
2019-05-10T05:55:41.628Z,94597.34
2019-05-10T05:58:25.048Z,94605.07
2019-05-10T06:00:45.095Z,94604.00
2019-05-10T06:03:19.599Z,94611.06
2019-05-10T06:05:46.231Z,94613.24
2019-05-10T06:08:22.514Z,94617.12
2019-05-10T06:10:56.774Z,94633.02
2019-05-10T06:13:23.522Z,94619.67
2019-05-10T06:15:52.055Z,94620.95
2019-05-10T06:18:23.044Z,94629.08
2019-05-10T06:20:52.948Z,94630.23
2019-05-10T06:23:22.942Z,94630.91
2019-05-10T06:25:52.777Z,94624.80
2019-05-10T06:28:26.893Z,94624.33
2019-05-10T06:30:54.234Z,94626.73
2019-05-10T06:33:24.149Z,94629.35
2019-05-10T06:35:54.078Z,94642.75
2019-05-10T06:38:24.071Z,94646.90
2019-05-10T06:40:53.985Z,94637.87
2019-05-10T06:43:23.966Z,94641.63
2019-05-10T06:45:54.002Z,94642.95
2019-05-10T06:48:27.402Z,94642.25
2019-05-10T06:50:55.428Z,94646.84
2019-05-10T06:53:25.319Z,94653.72
2019-05-10T06:55:55.167Z,94658.81
2019-05-10T06:58:25.009Z,94666.44
2019-05-10T07:00:54.897Z,94657.11
2019-05-10T07:03:25.792Z,94673.53
2019-05-10T07:05:55.608Z,94677.14
2019-05-10T07:08:25.507Z,94667.09
2019-05-10T07:10:56.508Z,94671.09
2019-05-10T07:13:26.427Z,94669.08
2019-05-10T07:15:56.349Z,94673.51
2019-05-10T07:18:26.208Z,94673.44
2019-05-10T07:21:00.976Z,94676.54
2019-05-10T07:23:30.317Z,94684.99
2019-05-10T07:26:00.375Z,94680.28
2019-05-10T07:28:30.205Z,94680.98
2019-05-10T07:31:00.093Z,94686.28
2019-05-10T07:33:32.116Z,94693.55
2019-05-10T07:36:01.461Z,94686.94
2019-05-10T07:38:32.934Z,94686.69
2019-05-10T07:41:03.650Z,94682.73
2019-05-10T07:43:33.519Z,94685.94
2019-05-10T07:46:06.419Z,94687.32
2019-05-10T07:48:35.152Z,94687.46
2019-05-10T07:51:05.139Z,94698.59
2019-05-10T07:53:35.047Z,94705.09
2019-05-10T07:56:06.227Z,94702.23
2019-05-10T07:58:38.349Z,94708.12
2019-05-10T08:01:09.391Z,94712.27
2019-05-10T08:03:44.349Z,94705.92
2019-05-10T08:06:10.972Z,94710.52
2019-05-10T08:08:40.948Z,94708.51
2019-05-10T08:11:10.966Z,94710.45
2019-05-10T08:13:40.788Z,94711.84
2019-05-10T08:16:18.923Z,94701.75
2019-05-10T08:18:43.200Z,94718.31
2019-05-10T08:21:21.955Z,94706.59
2019-05-10T08:23:44.765Z,94695.65
2019-05-10T08:26:20.204Z,94699.19
2019-05-10T08:28:46.337Z,94700.64
2019-05-10T08:31:16.407Z,94700.64
2019-05-10T08:33:56.347Z,94693.73
2019-05-10T08:36:17.980Z,94700.06
2019-05-10T08:38:58.921Z,94705.81
2019-05-10T08:41:19.465Z,94706.28
2019-05-10T08:43:49.409Z,94690.31
2019-05-10T08:46:24.282Z,94700.34
2019-05-10T08:48:53.755Z,94711.36
2019-05-10T08:51:22.878Z,94708.02
2019-05-10T08:53:58.252Z,94710.79
2019-05-10T08:56:25.442Z,94696.70
2019-05-10T08:58:55.424Z,94707.17
2019-05-10T09:01:30.062Z,94716.95
2019-05-10T09:04:01.997Z,94701.98
2019-05-10T09:06:28.612Z,94700.16
2019-05-10T09:09:03.485Z,94704.23
2019-05-10T09:11:32.628Z,94707.68
2019-05-10T09:14:03.358Z,94711.13
2019-05-10T09:16:39.258Z,94708.44
2019-05-10T09:19:04.947Z,94703.83
2019-05-10T09:21:34.952Z,94701.66
2019-05-10T09:24:06.621Z,94700.59
2019-05-10T09:26:36.724Z,94709.28
2019-05-10T09:29:06.662Z,94716.86
2019-05-10T09:31:39.269Z,94708.16
2019-05-10T09:34:08.256Z,94703.37
2019-05-10T09:36:38.178Z,94702.68
2019-05-10T09:39:09.235Z,94701.63
2019-05-10T09:41:39.795Z,94698.28
2019-05-10T09:44:09.712Z,94694.10
2019-05-10T09:46:42.034Z,94700.34
2019-05-10T09:49:15.691Z,94699.16
2019-05-10T09:51:42.882Z,94702.38
2019-05-10T09:54:12.871Z,94708.90
2019-05-10T09:56:44.959Z,94710.34
2019-05-10T09:59:17.814Z,94712.17
2019-05-10T10:01:48.431Z,94716.45
2019-05-10T10:04:20.422Z,94713.95
2019-05-10T10:06:52.913Z,94718.04
2019-05-10T10:09:24.721Z,94714.45
2019-05-10T10:12:01.673Z,94709.71
2019-05-10T10:14:28.354Z,94713.35
2019-05-10T10:17:02.751Z,94713.24
2019-05-10T10:19:29.448Z,94707.49
2019-05-10T10:21:59.311Z,94706.99
2019-05-10T10:24:29.139Z,94713.14
2019-05-10T10:26:59.034Z,94710.89
2019-05-10T10:29:33.879Z,94720.98
2019-05-10T10:32:00.565Z,94719.78
2019-05-10T10:34:32.511Z,94724.38
2019-05-10T10:37:02.091Z,94728.95
2019-05-10T10:39:32.092Z,94723.75
2019-05-10T10:42:07.515Z,94727.36
2019-05-10T10:44:33.699Z,94728.73
2019-05-10T10:47:03.542Z,94724.84
2019-05-10T10:49:33.390Z,94728.55
2019-05-10T10:52:05.569Z,94739.95
2019-05-10T10:54:37.529Z,94733.28
2019-05-10T10:57:08.022Z,94738.33
2019-05-10T10:59:39.135Z,94736.40
2019-05-10T11:02:31.487Z,94736.77
2019-05-10T11:04:46.943Z,94743.70
2019-05-10T11:07:12.463Z,94741.48
2019-05-10T11:09:42.350Z,94748.55
2019-05-10T11:12:14.641Z,94740.38
2019-05-10T11:14:45.567Z,94741.31
2019-05-10T11:17:15.498Z,94746.20
2019-05-10T11:19:45.485Z,94754.48
2019-05-10T11:22:15.399Z,94756.22
2019-05-10T11:24:45.373Z,94760.19
2019-05-10T11:27:17.325Z,94755.06
2019-05-10T11:29:46.901Z,94751.58
2019-05-10T11:32:17.143Z,94762.91
2019-05-10T11:34:47.300Z,94774.98
2019-05-10T11:37:18.506Z,94773.73
2019-05-10T11:39:50.518Z,94778.91
2019-05-10T11:42:21.218Z,94779.30
2019-05-10T11:44:54.491Z,94776.98
2019-05-10T11:47:27.153Z,94779.51
2019-05-10T11:49:55.555Z,94773.95
2019-05-10T11:54:57.164Z,94778.27
2019-05-10T11:57:26.997Z,94781.67
2019-05-10T11:59:56.837Z,94777.09
2019-05-10T12:02:38.037Z,94777.37
2019-05-10T12:05:03.656Z,94769.24
2019-05-10T12:07:35.214Z,94790.91
2019-05-10T12:10:08.349Z,94783.84
2019-05-10T12:12:51.785Z,94792.28
2019-05-10T12:15:05.445Z,94792.56
2019-05-10T12:17:36.567Z,94797.25
2019-05-10T12:20:06.977Z,94786.48
2019-05-10T12:22:40.594Z,94787.07
2019-05-10T12:25:32.682Z,94796.08
2019-05-10T12:26:04.742Z,94769.67
2019-05-10T12:27:47.835Z,94796.80
2019-05-10T12:30:15.817Z,94796.86
2019-05-10T12:32:55.859Z,94801.70
2019-05-10T12:35:15.653Z,94792.73
2019-05-10T12:37:51.409Z,94799.38
2019-05-10T12:40:17.382Z,94807.92
2019-05-10T12:42:47.464Z,94810.52
2019-05-10T12:45:17.717Z,94810.08
2019-05-10T12:47:47.554Z,94798.13
2019-05-10T12:50:18.566Z,94809.52
2019-05-10T12:53:01.229Z,94812.47
2019-05-10T12:55:20.248Z,94807.88
2019-05-10T12:57:50.080Z,94810.19
2019-05-10T13:00:20.380Z,94803.75
2019-05-10T13:02:51.903Z,94815.45
2019-05-10T13:05:30.779Z,94807.02
2019-05-10T13:07:53.348Z,94806.67
2019-05-10T13:10:23.318Z,94813.03
2019-05-10T13:12:53.413Z,94809.69
2019-05-10T13:15:24.967Z,94804.58
2019-05-10T13:17:55.108Z,94809.05
2019-05-10T13:20:25.109Z,94815.58
2019-05-10T13:22:55.017Z,94800.50
2019-05-10T13:25:24.913Z,94801.56
2019-05-10T13:27:54.766Z,94804.70
2019-05-10T13:30:28.249Z,94795.69
2019-05-10T13:32:58.812Z,94795.80
2019-05-10T13:35:28.087Z,94781.43
2019-05-10T13:38:04.012Z,94784.55
2019-05-10T13:40:29.712Z,94782.16
2019-05-10T13:42:59.705Z,94777.09
2019-05-10T13:45:31.938Z,94775.08
2019-05-10T13:48:01.194Z,94780.58
2019-05-10T13:50:31.110Z,94777.64
2019-05-10T13:53:01.106Z,94778.91
2019-05-10T13:55:31.109Z,94773.88
2019-05-10T13:58:01.006Z,94776.64
2019-05-10T14:00:34.458Z,94775.08
2019-05-10T14:03:04.939Z,94776.31
2019-05-10T14:05:35.533Z,94770.30
2019-05-10T14:08:08.292Z,94778.56
2019-05-10T14:10:38.282Z,94773.25
2019-05-10T14:13:08.331Z,94775.78
2019-05-10T14:15:38.386Z,94770.78
2019-05-10T14:18:08.308Z,94769.75
2019-05-10T14:20:38.128Z,94769.16
2019-05-10T14:23:08.051Z,94764.20
2019-05-10T14:25:39.053Z,94771.56
2019-05-10T14:28:15.584Z,94764.72
2019-05-10T14:30:40.772Z,94765.92
2019-05-10T14:33:14.852Z,94755.31
2019-05-10T14:35:42.301Z,94757.66
2019-05-10T14:38:15.082Z,94763.64
2019-05-10T14:40:50.006Z,94772.44
2019-05-10T14:43:19.925Z,94758.16
2019-05-10T14:45:49.763Z,94772.57
2019-05-10T14:48:28.104Z,94766.27
2019-05-10T14:50:51.303Z,94760.77
2019-05-10T14:53:25.769Z,94761.79
2019-05-10T14:55:53.066Z,94776.09
2019-05-10T14:58:22.928Z,94771.98
2019-05-10T15:00:52.879Z,94772.20
2019-05-10T15:03:22.789Z,94765.73
2019-05-10T15:05:55.570Z,94766.63
2019-05-10T15:08:24.518Z,94775.41
2019-05-10T15:10:57.116Z,94771.81
2019-05-10T15:13:28.336Z,94768.34
2019-05-10T15:15:57.725Z,94759.14
2019-05-10T15:18:27.583Z,94756.76
2019-05-10T15:20:57.524Z,94760.91
2019-05-10T15:23:27.507Z,94764.41
2019-05-10T15:26:03.669Z,94764.13
2019-05-10T15:28:34.510Z,94768.23
2019-05-10T15:31:00.745Z,94772.39
2019-05-10T15:33:30.820Z,94772.64
2019-05-10T15:36:00.720Z,94771.34
2019-05-10T15:38:30.723Z,94768.62
2019-05-10T15:41:00.764Z,94769.69
2019-05-10T15:43:30.708Z,94765.98
2019-05-10T15:46:00.817Z,94774.41
2019-05-10T15:48:30.750Z,94786.58
2019-05-10T15:51:00.768Z,94804.05
2019-05-10T15:53:30.809Z,94836.26
2019-05-10T15:56:03.930Z,94818.28
2019-05-10T15:58:36.525Z,94805.36
2019-05-10T16:01:04.246Z,94808.23
2019-05-10T16:03:34.341Z,94814.83
2019-05-10T16:06:04.352Z,94808.86
2019-05-10T16:08:34.355Z,94805.92
2019-05-10T16:11:04.285Z,94801.49
2019-05-10T16:13:34.766Z,94791.22
2019-05-10T16:16:04.777Z,94794.98
2019-05-10T16:18:39.753Z,94784.06
2019-05-10T16:21:09.579Z,94784.34
2019-05-10T16:23:41.494Z,94785.09
2019-05-10T16:26:09.922Z,94787.30
2019-05-10T16:28:39.827Z,94782.30
2019-05-10T16:31:09.723Z,94785.81
2019-05-10T16:33:39.680Z,94784.73
2019-05-10T16:36:09.522Z,94787.67
2019-05-10T16:38:39.419Z,94787.26
2019-05-10T16:41:09.263Z,94786.30
2019-05-10T16:43:39.576Z,94784.80
2019-05-10T16:46:09.440Z,94786.91
2019-05-10T16:48:39.269Z,94784.24
2019-05-10T16:51:10.258Z,94778.64
2019-05-10T16:53:44.275Z,94787.48
2019-05-10T16:56:13.448Z,94791.39
2019-05-10T16:58:47.493Z,94788.31
2019-05-10T17:01:18.756Z,94792.99
2019-05-10T17:03:51.181Z,94791.73
2019-05-10T17:06:18.693Z,94794.55
2019-05-10T17:08:48.680Z,94794.86
2019-05-10T17:11:18.683Z,94790.99
2019-05-10T17:13:48.869Z,94799.30
2019-05-10T17:16:19.042Z,94792.56
2019-05-10T17:18:55.146Z,94797.47
2019-05-10T17:21:21.822Z,94793.23
2019-05-10T17:23:51.698Z,94792.19
2019-05-10T17:26:21.624Z,94801.00
2019-05-10T17:28:51.569Z,94791.73
2019-05-10T17:31:21.581Z,94794.48
2019-05-10T17:33:51.549Z,94797.58
2019-05-10T17:36:21.636Z,94796.56
2019-05-10T17:38:53.795Z,94790.48
2019-05-10T17:41:25.270Z,94782.11
2019-05-10T17:43:55.765Z,94779.64
2019-05-10T17:46:25.736Z,94779.84
2019-05-10T17:48:55.666Z,94783.17
2019-05-10T17:51:25.593Z,94782.06
2019-05-10T17:54:01.681Z,94779.79
2019-05-10T17:56:32.667Z,94782.59
2019-05-10T17:59:00.055Z,94787.84
2019-05-10T18:01:29.980Z,94789.22
2019-05-10T18:03:59.967Z,94785.03
2019-05-10T18:06:49.120Z,94784.86
2019-05-10T18:09:19.003Z,94792.41
2019-05-10T18:11:48.926Z,94788.20
2019-05-10T18:14:19.794Z,94781.76
2019-05-10T18:16:50.254Z,94784.00
2019-05-10T18:19:24.817Z,94787.86
2019-05-10T18:21:55.084Z,94785.22
2019-05-10T18:24:24.583Z,94790.70
2019-05-10T18:26:54.473Z,94791.23
2019-05-10T18:29:24.510Z,94794.87
2019-05-10T18:31:57.884Z,94807.07
2019-05-10T18:34:32.831Z,94818.23
2019-05-10T18:36:57.833Z,94822.27
2019-05-10T18:39:28.253Z,94828.79
2019-05-10T18:41:58.096Z,94821.55
2019-05-10T18:44:28.027Z,94823.80
2019-05-10T18:46:57.955Z,94824.02
2019-05-10T18:49:27.895Z,94831.66
2019-05-10T18:52:04.233Z,94834.02
2019-05-10T18:54:29.476Z,94833.14
2019-05-10T18:57:04.758Z,94837.78
2019-05-10T18:59:31.951Z,94837.69
2019-05-10T19:02:01.868Z,94832.53
2019-05-10T19:04:32.002Z,94838.52
2019-05-10T19:07:09.722Z,94847.21
2019-05-10T19:09:34.006Z,94852.05
2019-05-10T19:12:04.370Z,94851.80
2019-05-10T19:14:34.979Z,94858.08
2019-05-10T19:17:09.487Z,94857.18
2019-05-10T19:19:41.956Z,94861.94
2019-05-10T19:22:10.381Z,94860.23
2019-05-10T19:24:40.379Z,94862.46
2019-05-10T19:27:10.318Z,94864.30
2019-05-10T19:29:45.904Z,94859.59
2019-05-10T19:32:18.365Z,94857.27
2019-05-10T19:34:48.364Z,94861.85
2019-05-10T19:37:29.824Z,94865.99
2019-05-10T19:39:48.157Z,94864.23
2019-05-10T19:42:18.155Z,94865.86
2019-05-10T19:44:48.038Z,94864.12
2019-05-10T19:47:20.059Z,94863.27
2019-05-10T19:49:51.582Z,94860.19
2019-05-10T19:52:26.138Z,94861.05
2019-05-10T19:54:54.251Z,94860.06
2019-05-10T19:57:24.152Z,94859.52
2019-05-10T19:59:54.172Z,94862.36
2019-05-10T20:02:24.131Z,94862.38
2019-05-10T20:04:55.123Z,94859.14
2019-05-10T20:07:25.006Z,94866.44
2019-05-10T20:09:54.944Z,94866.66
2019-05-10T20:12:24.961Z,94860.44
2019-05-10T20:14:56.239Z,94860.28
2019-05-10T20:17:26.269Z,94851.30
2019-05-10T20:19:56.088Z,94857.89
2019-05-10T20:22:26.081Z,94857.23
2019-05-10T20:24:55.931Z,94859.53
2019-05-10T20:27:25.916Z,94855.66
2019-05-10T20:29:55.851Z,94857.95
2019-05-10T20:32:25.848Z,94858.92
2019-05-10T20:34:55.697Z,94854.59
2019-05-10T20:37:25.640Z,94856.45
2019-05-10T20:39:55.639Z,94849.50
2019-05-10T20:42:25.680Z,94842.27
2019-05-10T20:45:06.685Z,94840.76
2019-05-10T20:47:27.274Z,94840.87
2019-05-10T20:49:57.315Z,94835.22
2019-05-10T20:52:27.228Z,94829.44
2019-05-10T20:54:57.160Z,94827.64
2019-05-10T20:57:27.015Z,94816.70
2019-05-10T20:59:56.942Z,94806.11
2019-05-10T21:02:26.852Z,94804.32
2019-05-10T21:04:56.906Z,94811.70
2019-05-10T21:07:27.154Z,94804.16
2019-05-10T21:09:57.067Z,94806.69
2019-05-10T21:12:27.136Z,94805.66
2019-05-10T21:14:57.252Z,94798.23
2019-05-10T21:17:27.189Z,94805.09
2019-05-10T21:19:57.210Z,94804.02
2019-05-10T21:22:27.194Z,94806.81
2019-05-10T21:24:57.220Z,94815.05
2019-05-10T21:27:27.147Z,94814.95
2019-05-10T21:29:57.207Z,94815.68
2019-05-10T21:32:27.356Z,94809.30
2019-05-10T21:34:57.240Z,94802.79
2019-05-10T21:37:27.128Z,94800.16
2019-05-10T21:39:57.081Z,94796.80
2019-05-10T21:42:27.075Z,94799.49
2019-05-10T21:44:57.193Z,94798.80
2019-05-10T21:47:27.034Z,94805.24
2019-05-10T21:49:58.171Z,94805.88
2019-05-10T21:52:28.115Z,94807.60
2019-05-10T21:54:58.052Z,94801.38
2019-05-10T21:57:27.973Z,94804.83
2019-05-10T22:00:17.647Z,94798.83
2019-05-10T22:02:49.272Z,94791.03
2019-05-10T22:05:19.200Z,94795.59
2019-05-10T22:07:49.147Z,94796.13
2019-05-10T22:10:19.146Z,94805.39
2019-05-10T22:12:49.071Z,94815.29
2019-05-10T22:15:19.243Z,94809.83
2019-05-10T22:17:49.209Z,94807.88
2019-05-10T22:20:19.269Z,94808.55
2019-05-10T22:22:49.233Z,94806.25
2019-05-10T22:25:19.107Z,94801.38
2019-05-10T22:27:48.956Z,94793.65
2019-05-10T22:30:19.021Z,94798.86
2019-05-10T22:32:48.974Z,94797.80
2019-05-10T22:35:18.908Z,94801.53
2019-05-10T22:37:48.782Z,94801.81
2019-05-10T22:40:18.781Z,94799.81
2019-05-10T22:42:48.814Z,94798.31
2019-05-10T22:45:18.833Z,94793.33
2019-05-10T22:47:48.761Z,94787.23
2019-05-10T22:50:18.793Z,94783.58
2019-05-10T22:52:48.640Z,94786.91
2019-05-10T22:55:18.593Z,94782.22
2019-05-10T22:57:48.892Z,94776.22
2019-05-10T23:00:19.392Z,94779.37
2019-05-10T23:02:49.338Z,94784.84
2019-05-10T23:05:20.172Z,94771.87
2019-05-10T23:07:50.118Z,94773.13
2019-05-10T23:10:20.123Z,94772.86
2019-05-10T23:12:49.979Z,94774.72
2019-05-10T23:15:20.362Z,94778.70
2019-05-10T23:17:51.290Z,94777.74
2019-05-10T23:20:21.269Z,94784.99
2019-05-10T23:22:51.346Z,94788.16
2019-05-10T23:25:21.307Z,94790.47
2019-05-10T23:27:51.245Z,94793.23
2019-05-10T23:30:21.230Z,94798.34
2019-05-10T23:32:51.167Z,94793.23
2019-05-10T23:35:21.096Z,94797.22
2019-05-10T23:37:51.930Z,94795.25
2019-05-10T23:40:21.921Z,94800.02
2019-05-10T23:42:51.791Z,94792.56
2019-05-10T23:45:21.775Z,94792.17
2019-05-10T23:47:51.779Z,94788.02
2019-05-10T23:50:21.729Z,94781.40
2019-05-10T23:52:51.582Z,94778.24
2019-05-10T23:55:21.412Z,94783.98
2019-05-10T23:57:51.347Z,94780.16
